createdAt,value
2023-02-14T00:02:14.978Z,10.00
2023-02-14T00:05:00.642Z,9.80
2023-02-14T00:07:46.368Z,9.80
2023-02-14T00:21:51.669Z,9.40
2023-02-14T00:24:37.206Z,9.40
2023-02-14T00:27:22.885Z,9.20
2023-02-14T00:32:55.913Z,9.00
2023-02-14T00:35:41.577Z,8.90
2023-02-14T00:38:27.174Z,8.80
2023-02-14T01:08:58.802Z,8.30
2023-02-14T01:11:44.388Z,8.30
2023-02-14T01:14:30.042Z,8.40
2023-02-14T01:22:48.877Z,8.10
2023-02-14T01:25:36.362Z,8.00
2023-02-14T02:04:26.688Z,7.70
2023-02-14T02:29:20.694Z,7.10
2023-02-14T02:32:34.551Z,7.10
2023-02-14T02:35:41.917Z,7.00
2023-02-14T02:50:14.508Z,6.90
2023-02-14T02:59:00.532Z,6.70
2023-02-14T03:02:06.910Z,6.50
2023-02-14T03:10:33.330Z,6.50
2023-02-14T03:13:18.773Z,6.30
2023-02-14T03:21:41.937Z,6.10
2023-02-14T03:27:16.687Z,6.40
2023-02-14T04:06:02.564Z,6.20
2023-02-14T04:08:48.202Z,5.90
2023-02-14T04:17:25.681Z,5.70
2023-02-14T04:20:11.037Z,5.70
2023-02-14T04:22:57.622Z,5.70
2023-02-14T04:25:43.229Z,5.60
2023-02-14T04:28:28.955Z,5.60
2023-02-14T04:34:00.670Z,5.50
2023-02-14T04:47:50.169Z,10.00
2023-02-14T04:50:35.771Z,10.80
2023-02-14T04:53:21.751Z,11.30
2023-02-14T05:26:33.471Z,13.90
2023-02-14T05:29:19.154Z,14.00
2023-02-14T05:32:05.091Z,14.00
2023-02-14T05:34:50.388Z,14.00
2023-02-14T05:43:07.746Z,14.00
2023-02-14T05:45:54.493Z,14.00
2023-02-14T05:48:39.894Z,14.00
2023-02-14T05:51:25.515Z,13.90
2023-02-14T05:54:11.351Z,14.00
2023-02-14T05:56:56.840Z,14.00
2023-02-14T05:59:42.520Z,14.00
2023-02-14T06:02:28.264Z,14.00
2023-02-14T06:05:15.254Z,14.00
2023-02-14T06:08:01.490Z,14.00
2023-02-14T06:10:46.926Z,14.00
2023-02-14T06:13:32.184Z,14.10
2023-02-14T06:16:18.106Z,14.20
2023-02-14T06:19:03.365Z,14.20
2023-02-14T06:21:48.995Z,14.20
2023-02-14T06:24:34.716Z,14.30
2023-02-14T06:27:20.285Z,14.30
2023-02-14T06:30:06.728Z,14.30
2023-02-14T06:32:52.140Z,14.40
2023-02-14T06:35:37.573Z,14.40
2023-02-14T06:38:23.152Z,14.40
2023-02-14T06:41:09.749Z,16.10
2023-02-14T06:43:55.218Z,14.40
2023-02-14T06:46:40.765Z,14.50
2023-02-14T06:49:26.432Z,14.50
2023-02-14T06:52:12.194Z,14.50
2023-02-14T06:54:57.764Z,14.50
2023-02-14T06:57:43.696Z,14.60
2023-02-14T07:00:29.250Z,14.60
2023-02-14T07:03:15.245Z,14.70
2023-02-14T07:06:00.848Z,14.70
2023-02-14T07:08:46.333Z,14.70
2023-02-14T07:11:31.944Z,14.70
2023-02-14T07:14:17.789Z,14.70
2023-02-14T07:17:03.367Z,14.70
2023-02-14T07:19:48.909Z,14.80
2023-02-14T07:22:34.994Z,14.80
2023-02-14T07:25:21.161Z,14.70
2023-02-14T07:28:06.744Z,14.80
2023-02-14T07:30:52.576Z,14.80
2023-02-14T07:33:38.365Z,14.90
2023-02-14T07:36:23.941Z,14.90
2023-02-14T07:39:09.839Z,15.00
2023-02-14T07:41:55.076Z,15.00
2023-02-14T07:44:40.924Z,14.90
2023-02-14T07:47:26.273Z,14.90
2023-02-14T07:50:11.885Z,14.90
2023-02-14T07:52:57.549Z,15.00
2023-02-14T07:55:43.040Z,15.00
2023-02-14T07:58:28.879Z,15.10
2023-02-14T08:01:14.559Z,15.10
2023-02-14T08:04:00.028Z,15.10
2023-02-14T08:06:45.773Z,15.10
2023-02-14T08:09:31.445Z,15.10
2023-02-14T08:12:35.856Z,15.10
2023-02-14T08:15:39.935Z,15.10
2023-02-14T08:18:27.154Z,15.10
2023-02-14T08:21:12.614Z,16.30
2023-02-14T08:23:58.522Z,15.20
2023-02-14T08:26:44.553Z,15.20
2023-02-14T08:29:30.502Z,15.20
2023-02-14T08:32:16.035Z,15.20
2023-02-14T08:35:01.117Z,15.20
2023-02-14T08:37:46.692Z,15.20
2023-02-14T08:40:33.283Z,15.20
2023-02-14T08:43:18.877Z,15.20
2023-02-14T08:46:04.605Z,15.30
2023-02-14T08:48:50.264Z,15.30
2023-02-14T08:51:35.677Z,15.40
2023-02-14T08:54:21.277Z,15.40
2023-02-14T08:57:06.926Z,15.40
2023-02-14T08:59:52.799Z,15.50
2023-02-14T09:02:38.378Z,15.50
2023-02-14T09:05:24.063Z,15.60
2023-02-14T09:08:09.743Z,15.60
2023-02-14T09:10:55.436Z,15.60
2023-02-14T09:13:42.020Z,15.70
2023-02-14T09:16:27.451Z,15.70
2023-02-14T09:19:13.013Z,15.70
2023-02-14T09:21:59.000Z,15.70
2023-02-14T09:24:44.508Z,15.60
2023-02-14T09:27:30.367Z,15.70
2023-02-14T09:30:16.342Z,15.70
2023-02-14T09:33:04.606Z,15.70
2023-02-14T09:35:50.327Z,15.70
2023-02-14T09:38:35.817Z,15.60
2023-02-14T09:41:29.167Z,15.60
2023-02-14T09:44:33.593Z,15.60
2023-02-14T09:47:27.086Z,15.70
2023-02-14T09:50:22.198Z,15.70
2023-02-14T09:53:27.962Z,15.70
2023-02-14T09:56:50.776Z,15.70
2023-02-14T09:59:40.058Z,15.80
2023-02-14T10:02:34.865Z,15.80
2023-02-14T10:05:22.027Z,15.90
2023-02-14T10:08:20.399Z,16.00
2023-02-14T10:11:07.069Z,15.90
2023-02-14T10:14:05.548Z,16.00
2023-02-14T10:16:53.780Z,16.10
2023-02-14T10:19:50.294Z,16.10
2023-02-14T10:22:41.385Z,16.20
2023-02-14T10:25:29.328Z,16.20
2023-02-14T10:28:16.853Z,16.20
2023-02-14T10:31:22.696Z,16.30
2023-02-14T10:34:08.280Z,16.40
2023-02-14T10:36:57.000Z,16.40
2023-02-14T10:39:45.900Z,16.50
2023-02-14T10:43:04.098Z,16.50
2023-02-14T10:46:08.063Z,16.60
2023-02-14T10:49:00.292Z,16.60
2023-02-14T10:52:04.782Z,16.60
2023-02-14T10:54:58.030Z,16.70
2023-02-14T10:57:45.444Z,16.70
2023-02-14T11:00:35.468Z,16.80
2023-02-14T11:03:21.756Z,16.80
2023-02-14T11:06:08.278Z,16.90
2023-02-14T11:08:56.240Z,17.00
2023-02-14T11:11:45.960Z,17.00
2023-02-14T11:14:33.215Z,17.10
2023-02-14T11:17:29.108Z,17.20
2023-02-14T11:20:22.897Z,17.30
2023-02-14T11:23:26.366Z,17.40
2023-02-14T11:26:12.303Z,17.50
2023-02-14T11:28:59.085Z,17.50
2023-02-14T11:31:44.921Z,17.60
2023-02-14T11:34:36.582Z,17.70
2023-02-14T11:37:21.921Z,17.80
2023-02-14T11:40:07.857Z,17.90
2023-02-14T11:43:02.196Z,18.00
2023-02-14T11:46:05.723Z,18.10
2023-02-14T11:48:56.344Z,18.10
2023-02-14T11:51:45.473Z,18.20
2023-02-14T11:54:39.310Z,18.30
2023-02-14T11:57:35.391Z,18.40
2023-02-14T12:00:21.567Z,18.60
2023-02-14T12:03:06.951Z,18.60
2023-02-14T12:05:57.199Z,18.70
2023-02-14T12:08:43.237Z,18.80
2023-02-14T12:11:29.827Z,18.90
2023-02-14T12:14:22.302Z,19.00
2023-02-14T12:17:26.655Z,19.00
2023-02-14T12:20:15.308Z,19.10
2023-02-14T12:23:30.110Z,19.10
2023-02-14T12:26:36.095Z,19.20
2023-02-14T12:29:21.527Z,19.30
2023-02-14T12:32:14.223Z,19.40
2023-02-14T12:35:07.552Z,19.40
2023-02-14T12:38:03.805Z,19.40
2023-02-14T12:43:48.052Z,19.70
2023-02-14T12:46:39.484Z,19.80
2023-02-14T13:50:21.356Z,20.70
2023-02-14T13:55:55.970Z,20.70
2023-02-14T13:59:01.708Z,20.80
2023-02-14T14:01:48.328Z,20.80
2023-02-14T14:04:34.892Z,20.80
2023-02-14T14:07:23.066Z,20.70
2023-02-14T14:10:11.799Z,20.70
2023-02-14T14:12:58.203Z,20.60
2023-02-14T14:16:03.855Z,20.60
2023-02-14T14:18:50.435Z,20.60
2023-02-14T14:21:39.145Z,20.50
2023-02-14T14:24:26.440Z,20.50
2023-02-14T14:27:20.013Z,20.50
2023-02-14T14:32:51.810Z,20.50
2023-02-14T14:38:23.883Z,20.60
2023-02-14T14:41:09.300Z,20.60
2023-02-14T14:43:55.062Z,20.60
2023-02-14T14:46:41.162Z,20.50
2023-02-14T14:49:26.621Z,20.60
2023-02-14T14:52:23.226Z,20.50
2023-02-14T14:57:56.764Z,20.60
2023-02-14T15:00:51.048Z,20.60
2023-02-14T15:03:36.601Z,20.60
2023-02-14T15:06:22.206Z,20.60
2023-02-14T15:09:11.500Z,20.60
2023-02-14T15:12:16.839Z,20.60
2023-02-14T15:15:02.138Z,20.60
2023-02-14T15:17:48.050Z,20.60
2023-02-14T15:23:24.175Z,20.60
2023-02-14T15:26:17.520Z,20.60
2023-02-14T15:37:24.473Z,20.50
2023-02-14T15:40:22.704Z,20.50
2023-02-14T15:43:27.806Z,20.50
2023-02-14T15:46:16.196Z,20.40
2023-02-14T15:49:05.906Z,20.40
2023-02-14T15:51:51.637Z,20.40
2023-02-14T15:54:38.118Z,20.30
2023-02-14T16:03:08.528Z,20.20
2023-02-14T16:14:27.356Z,20.10
2023-02-14T16:19:59.532Z,20.10
2023-02-14T16:22:45.140Z,20.10
2023-02-14T16:25:30.901Z,20.00
2023-02-14T16:33:48.973Z,20.00
2023-02-14T17:01:30.091Z,19.90
2023-02-14T17:09:54.022Z,19.80
2023-02-14T17:23:44.858Z,19.70
2023-02-14T17:56:59.812Z,19.60
2023-02-14T18:41:23.683Z,19.50
2023-02-14T19:00:46.611Z,19.40
2023-02-14T19:33:59.522Z,18.50
2023-02-14T19:56:07.362Z,18.20
2023-02-14T19:58:53.190Z,18.20
2023-02-14T20:09:57.647Z,18.10
2023-02-14T20:29:20.962Z,18.00
2023-02-14T20:57:01.568Z,17.80
2023-02-14T21:08:06.218Z,17.80
2023-02-14T21:10:51.835Z,17.80
2023-02-14T21:33:00.426Z,17.60
2023-02-14T21:46:50.030Z,17.60
2023-02-14T21:49:54.621Z,17.10
2023-02-14T21:52:39.913Z,15.90
2023-02-14T21:58:12.304Z,14.50
2023-02-14T22:20:21.580Z,12.30
2023-02-14T22:39:43.061Z,11.10
2023-02-14T22:48:00.483Z,10.90
2023-02-14T23:07:23.065Z,10.40
2023-02-14T23:22:21.905Z,9.90
2023-02-14T23:27:53.453Z,9.80
2023-02-14T23:38:57.557Z,9.60
